createdAt,value
2019-02-27T00:00:19.232Z,72.60
2019-02-27T00:02:47.889Z,73.70
2019-02-27T00:05:16.268Z,73.10
2019-02-27T00:07:44.670Z,73.00
2019-02-27T00:10:13.045Z,73.60
2019-02-27T00:12:41.458Z,73.30
2019-02-27T00:15:09.859Z,73.30
2019-02-27T00:17:38.230Z,73.30
2019-02-27T00:20:07.510Z,73.80
2019-02-27T00:22:35.917Z,73.40
2019-02-27T00:25:04.377Z,74.40
2019-02-27T00:27:32.763Z,73.90
2019-02-27T00:30:04.537Z,73.70
2019-02-27T00:32:31.190Z,74.00
2019-02-27T00:34:59.566Z,73.70
2019-02-27T00:37:27.933Z,74.20
2019-02-27T00:39:56.284Z,74.10
2019-02-27T00:42:33.252Z,74.20
2019-02-27T00:44:54.703Z,74.70
2019-02-27T00:47:23.103Z,74.90
2019-02-27T00:49:51.497Z,76.20
2019-02-27T00:52:19.881Z,75.00
2019-02-27T00:54:48.285Z,75.10
2019-02-27T00:57:20.536Z,75.40
2019-02-27T00:59:46.722Z,75.00
2019-02-27T01:02:15.091Z,75.70
2019-02-27T01:04:43.508Z,75.60
2019-02-27T01:07:11.895Z,75.60
2019-02-27T01:09:40.295Z,75.90
2019-02-27T01:12:08.697Z,75.70
2019-02-27T01:14:37.633Z,75.70
2019-02-27T01:17:06.082Z,75.60
2019-02-27T01:19:38.340Z,75.40
2019-02-27T01:22:04.549Z,76.10
2019-02-27T01:24:32.961Z,76.40
2019-02-27T01:27:04.612Z,76.40
2019-02-27T01:29:32.331Z,76.50
2019-02-27T01:32:00.767Z,77.00
2019-02-27T01:34:29.157Z,76.40
2019-02-27T01:36:58.033Z,76.20
2019-02-27T01:39:27.210Z,75.70
2019-02-27T01:41:57.930Z,77.00
2019-02-27T01:44:25.636Z,76.40
2019-02-27T01:46:54.735Z,76.70
2019-02-27T01:49:23.129Z,76.70
2019-02-27T01:51:51.459Z,76.70
2019-02-27T01:54:19.840Z,76.40
2019-02-27T01:56:48.247Z,77.30
2019-02-27T01:59:17.607Z,77.50
2019-02-27T02:01:46.236Z,77.90
2019-02-27T02:04:14.624Z,77.50
2019-02-27T02:06:43.024Z,79.30
2019-02-27T02:09:31.183Z,79.00
2019-02-27T02:12:02.131Z,79.10
2019-02-27T02:14:54.987Z,79.40
2019-02-27T02:17:45.802Z,79.20
2019-02-27T02:20:29.320Z,79.50
2019-02-27T02:23:06.903Z,79.80
2019-02-27T02:25:38.520Z,79.30
2019-02-27T02:28:12.113Z,80.10
2019-02-27T02:31:05.412Z,79.40
2019-02-27T02:33:57.185Z,79.00
2019-02-27T02:36:54.407Z,79.10
2019-02-27T02:39:45.218Z,79.20
2019-02-27T02:42:40.749Z,80.50
2019-02-27T02:45:33.821Z,79.70
2019-02-27T02:48:20.293Z,79.10
2019-02-27T02:51:00.984Z,79.60
2019-02-27T02:53:41.522Z,79.20
2019-02-27T02:56:13.179Z,79.60
2019-02-27T02:59:08.712Z,79.50
2019-02-27T03:01:49.161Z,79.60
2019-02-27T03:04:41.027Z,79.70
2019-02-27T03:07:27.349Z,79.70
2019-02-27T03:10:07.140Z,79.30
2019-02-27T03:12:41.333Z,79.40
2019-02-27T03:15:32.134Z,79.40
2019-02-27T03:18:12.674Z,79.40
2019-02-27T03:20:44.815Z,80.30
2019-02-27T03:23:28.397Z,79.90
2019-02-27T03:26:16.967Z,79.70
2019-02-27T03:29:19.926Z,80.20
2019-02-27T03:32:00.245Z,79.90
2019-02-27T03:34:50.308Z,80.00
2019-02-27T03:37:18.670Z,80.20
2019-02-27T03:40:21.660Z,80.20
2019-02-27T03:43:01.780Z,80.60
2019-02-27T03:45:33.419Z,80.00
2019-02-27T03:48:07.694Z,80.30
2019-02-27T03:50:49.926Z,79.80
2019-02-27T03:53:39.294Z,80.50
2019-02-27T03:56:34.671Z,80.40
2019-02-27T03:59:12.129Z,79.90
2019-02-27T04:02:05.817Z,80.30
2019-02-27T04:04:35.300Z,80.60
2019-02-27T04:07:32.776Z,80.30
2019-02-27T04:10:01.194Z,80.40
2019-02-27T04:12:29.581Z,80.50
2019-02-27T04:14:58.038Z,80.00
2019-02-27T04:17:28.541Z,80.20
2019-02-27T04:19:57.694Z,80.50
2019-02-27T04:22:26.450Z,80.70
2019-02-27T04:24:56.833Z,81.00
2019-02-27T04:27:24.869Z,80.30
2019-02-27T04:29:53.254Z,80.70
2019-02-27T04:32:21.656Z,81.70
2019-02-27T04:34:50.322Z,80.90
2019-02-27T04:37:20.415Z,81.20
2019-02-27T04:39:48.762Z,80.70
2019-02-27T04:42:17.161Z,81.00
2019-02-27T04:44:45.537Z,81.20
2019-02-27T04:47:13.942Z,81.50
2019-02-27T04:49:42.341Z,82.10
2019-02-27T04:52:11.006Z,83.20
2019-02-27T04:54:41.528Z,83.80
2019-02-27T04:57:09.704Z,83.10
2019-02-27T04:59:38.030Z,83.00
2019-02-27T05:02:06.423Z,83.30
2019-02-27T05:04:35.242Z,83.50
2019-02-27T05:07:04.298Z,83.90
2019-02-27T05:09:34.169Z,84.20
2019-02-27T05:12:02.724Z,86.60
2019-02-27T05:14:31.121Z,85.40
2019-02-27T05:16:59.700Z,86.60
2019-02-27T05:19:28.086Z,87.60
2019-02-27T05:21:56.466Z,86.70
2019-02-27T05:24:24.875Z,85.70
2019-02-27T05:26:53.558Z,87.20
2019-02-27T05:29:21.961Z,86.40
2019-02-27T05:31:53.384Z,86.60
2019-02-27T05:34:20.372Z,85.70
2019-02-27T05:36:48.747Z,87.30
2019-02-27T05:39:17.987Z,86.50
2019-02-27T05:41:46.407Z,86.80
2019-02-27T05:44:14.800Z,87.50
2019-02-27T05:46:43.214Z,87.50
2019-02-27T05:49:11.605Z,86.70
2019-02-27T05:51:39.995Z,86.50
2019-02-27T05:54:08.379Z,86.50
2019-02-27T05:56:36.779Z,85.90
2019-02-27T05:59:05.149Z,85.70
2019-02-27T06:01:37.773Z,84.90
2019-02-27T06:04:03.611Z,84.70
2019-02-27T06:06:32.001Z,84.30
2019-02-27T06:09:00.419Z,84.30
2019-02-27T06:11:29.537Z,84.30
2019-02-27T06:13:58.841Z,84.20
2019-02-27T06:16:27.231Z,84.00
2019-02-27T06:18:56.224Z,83.80
2019-02-27T06:21:25.287Z,83.50
2019-02-27T06:23:53.707Z,83.40
2019-02-27T06:26:22.091Z,83.10
2019-02-27T06:28:50.779Z,82.90
2019-02-27T06:31:19.168Z,82.80
2019-02-27T06:33:47.772Z,82.80
2019-02-27T06:36:16.119Z,82.50
2019-02-27T06:38:44.522Z,82.40
2019-02-27T06:41:15.405Z,82.20
2019-02-27T06:43:43.267Z,81.60
2019-02-27T06:46:11.642Z,82.00
2019-02-27T06:48:43.091Z,81.90
2019-02-27T06:51:10.231Z,81.90
2019-02-27T06:53:38.643Z,81.90
2019-02-27T06:56:07.049Z,81.60
2019-02-27T06:58:35.452Z,81.30
2019-02-27T07:01:03.835Z,80.80
2019-02-27T07:03:33.028Z,80.60
2019-02-27T07:06:01.488Z,80.60
2019-02-27T07:08:29.892Z,80.60
2019-02-27T07:11:09.941Z,80.50
2019-02-27T07:13:29.832Z,80.40
2019-02-27T07:15:58.413Z,80.30
2019-02-27T07:18:26.807Z,80.70
2019-02-27T07:20:55.771Z,80.80
2019-02-27T07:23:25.289Z,81.40
2019-02-27T07:25:53.978Z,82.90
2019-02-27T07:28:22.381Z,82.60
2019-02-27T07:30:50.820Z,83.50
2019-02-27T07:33:19.215Z,84.00
2019-02-27T07:35:49.220Z,83.70
2019-02-27T07:38:21.346Z,82.60
2019-02-27T07:40:47.605Z,82.40
2019-02-27T07:43:16.012Z,82.50
2019-02-27T07:45:45.461Z,82.20
2019-02-27T07:48:14.527Z,81.70
2019-02-27T07:50:42.889Z,81.40
2019-02-27T07:53:11.439Z,81.10
2019-02-27T07:55:40.103Z,80.50
2019-02-27T07:58:08.488Z,79.60
2019-02-27T08:00:36.894Z,78.80
2019-02-27T08:03:09.083Z,77.70
2019-02-27T08:05:35.344Z,77.40
2019-02-27T08:08:03.721Z,76.80
2019-02-27T08:10:36.685Z,75.70
2019-02-27T08:13:02.225Z,75.60
2019-02-27T08:15:30.627Z,74.90
2019-02-27T08:17:59.025Z,74.80
2019-02-27T08:20:27.402Z,74.30
2019-02-27T08:22:55.786Z,73.80
2019-02-27T08:25:24.195Z,73.50
2019-02-27T08:27:54.158Z,73.30
2019-02-27T08:30:25.926Z,72.20
2019-02-27T08:32:54.361Z,72.20
2019-02-27T08:35:22.737Z,71.40
2019-02-27T08:37:51.152Z,70.70
2019-02-27T08:40:24.080Z,70.80
2019-02-27T08:42:49.566Z,70.70
2019-02-27T08:45:21.394Z,70.20
2019-02-27T08:47:49.810Z,69.30
2019-02-27T08:50:22.002Z,69.30
2019-02-27T08:52:51.708Z,69.00
2019-02-27T08:55:22.338Z,68.70
2019-02-27T08:57:55.475Z,68.30
2019-02-27T09:00:26.881Z,67.80
2019-02-27T09:02:55.796Z,67.30
2019-02-27T09:05:24.314Z,67.40
2019-02-27T09:07:52.742Z,67.00
2019-02-27T09:10:26.340Z,66.80
2019-02-27T09:13:04.994Z,66.20
2019-02-27T09:15:25.204Z,65.00
2019-02-27T09:17:53.624Z,65.30
2019-02-27T09:20:22.189Z,65.20
2019-02-27T09:22:50.622Z,65.10
2019-02-27T09:25:23.389Z,64.00
2019-02-27T09:27:49.050Z,63.70
2019-02-27T09:30:21.570Z,62.90
2019-02-27T09:32:49.943Z,62.20
2019-02-27T09:35:18.357Z,62.40
2019-02-27T09:37:48.402Z,61.90
2019-02-27T09:40:25.277Z,61.90
2019-02-27T09:42:53.967Z,61.70
2019-02-27T09:45:31.015Z,61.40
2019-02-27T09:48:00.567Z,61.90
2019-02-27T09:50:47.724Z,59.10
2019-02-27T09:53:12.630Z,59.70
2019-02-27T09:55:41.020Z,59.10
2019-02-27T09:58:11.559Z,58.90
2019-02-27T10:00:48.738Z,58.10
2019-02-27T10:03:20.152Z,58.50
2019-02-27T10:05:47.771Z,57.80
2019-02-27T10:08:16.287Z,57.70
2019-02-27T10:10:45.824Z,57.60
2019-02-27T10:13:14.393Z,57.20
2019-02-27T10:15:42.782Z,57.40
2019-02-27T10:18:11.535Z,57.40
2019-02-27T10:20:39.968Z,56.70
2019-02-27T10:23:08.394Z,56.90
2019-02-27T10:25:36.830Z,57.10
2019-02-27T10:28:05.234Z,56.50
2019-02-27T10:30:33.660Z,55.60
2019-02-27T10:33:03.396Z,55.90
2019-02-27T10:35:32.125Z,55.80
2019-02-27T10:38:00.496Z,56.00
2019-02-27T10:40:29.192Z,55.80
2019-02-27T10:42:57.867Z,55.40
2019-02-27T10:45:26.267Z,55.20
2019-02-27T10:47:54.663Z,55.30
2019-02-27T10:50:23.072Z,55.50
2019-02-27T10:52:51.445Z,55.20
2019-02-27T10:55:20.676Z,55.00
2019-02-27T10:57:49.081Z,55.10
2019-02-27T11:00:29.227Z,53.50
2019-02-27T11:02:58.163Z,53.50
2019-02-27T11:05:28.286Z,53.60
2019-02-27T11:07:56.663Z,53.10
2019-02-27T11:10:25.561Z,52.90
2019-02-27T11:12:53.951Z,52.50
2019-02-27T11:15:23.075Z,53.10
2019-02-27T11:17:51.472Z,52.50
2019-02-27T11:20:21.208Z,52.30
2019-02-27T11:22:50.188Z,52.30
2019-02-27T11:25:24.488Z,52.60
2019-02-27T11:27:52.891Z,52.30
2019-02-27T11:30:26.765Z,51.90
2019-02-27T11:32:57.784Z,51.90
2019-02-27T11:35:26.044Z,50.80
2019-02-27T11:37:55.403Z,51.10
2019-02-27T11:40:24.852Z,50.70
2019-02-27T11:42:53.205Z,50.20
2019-02-27T11:45:24.567Z,49.50
2019-02-27T11:47:51.666Z,50.20
2019-02-27T11:50:20.336Z,50.60
2019-02-27T11:52:49.357Z,50.30
2019-02-27T11:55:24.541Z,50.40
2019-02-27T11:57:53.048Z,50.10
2019-02-27T12:00:26.345Z,50.10
2019-02-27T12:02:54.983Z,49.60
2019-02-27T12:05:23.483Z,48.60
2019-02-27T12:07:52.155Z,49.40
2019-02-27T12:10:23.257Z,48.80
2019-02-27T12:12:51.634Z,49.30
2019-02-27T12:15:20.782Z,49.40
2019-02-27T12:17:49.158Z,47.90
2019-02-27T12:20:19.673Z,46.90
2019-02-27T12:22:48.122Z,46.10
2019-02-27T12:25:17.668Z,46.70
2019-02-27T12:27:49.788Z,45.10
2019-02-27T12:30:18.312Z,45.20
2019-02-27T12:32:46.681Z,45.10
2019-02-27T12:35:26.797Z,44.60
2019-02-27T12:37:55.174Z,45.30
2019-02-27T12:40:24.986Z,45.40
2019-02-27T12:42:53.541Z,44.40
2019-02-27T12:45:26.809Z,46.00
2019-02-27T12:47:55.485Z,44.80
2019-02-27T12:50:26.833Z,44.40
2019-02-27T12:52:55.465Z,43.50
2019-02-27T12:55:24.550Z,42.60
2019-02-27T12:57:53.135Z,43.10
2019-02-27T13:00:29.934Z,42.60
2019-02-27T13:02:59.169Z,42.40
2019-02-27T13:05:28.393Z,40.60
2019-02-27T13:07:56.765Z,40.50
2019-02-27T13:10:26.097Z,40.60
2019-02-27T13:12:54.510Z,41.60
2019-02-27T13:15:24.545Z,40.40
2019-02-27T13:17:56.084Z,39.80
2019-02-27T13:20:30.869Z,38.90
2019-02-27T13:23:04.145Z,38.10
2019-02-27T13:25:30.396Z,36.40
2019-02-27T13:27:58.962Z,36.30
2019-02-27T13:30:28.103Z,34.60
2019-02-27T13:33:00.771Z,32.80
2019-02-27T13:35:28.411Z,33.40
2019-02-27T13:37:56.638Z,32.10
2019-02-27T13:40:29.255Z,31.40
2019-02-27T13:42:57.675Z,30.30
2019-02-27T13:45:27.291Z,30.10
2019-02-27T13:47:55.790Z,30.10
2019-02-27T13:50:26.721Z,29.90
2019-02-27T13:52:54.258Z,29.50
2019-02-27T13:55:23.387Z,28.90
2019-02-27T13:57:51.793Z,27.80
2019-02-27T14:00:27.219Z,27.50
2019-02-27T14:02:55.621Z,27.40
2019-02-27T14:05:24.290Z,26.80
2019-02-27T14:07:57.271Z,26.70
2019-02-27T14:10:25.573Z,26.20
2019-02-27T14:12:53.996Z,25.20
2019-02-27T14:15:26.762Z,25.70
2019-02-27T14:17:52.997Z,25.60
2019-02-27T14:20:22.429Z,25.70
2019-02-27T14:22:50.922Z,25.70
2019-02-27T14:25:21.463Z,25.60
2019-02-27T14:27:50.131Z,25.50
2019-02-27T14:30:21.228Z,24.20
2019-02-27T14:32:49.604Z,23.20
2019-02-27T14:35:18.198Z,23.30
2019-02-27T14:37:49.668Z,23.90
2019-02-27T14:40:21.261Z,23.00
2019-02-27T14:42:53.830Z,23.80
2019-02-27T14:45:21.697Z,24.10
2019-02-27T14:47:50.613Z,24.10
2019-02-27T14:50:20.321Z,24.10
2019-02-27T14:52:50.036Z,23.50
2019-02-27T14:55:18.928Z,23.00
2019-02-27T14:57:51.146Z,23.90
2019-02-27T15:00:31.644Z,24.00
2019-02-27T15:03:00.300Z,24.10
2019-02-27T15:05:28.699Z,24.00
2019-02-27T15:07:57.094Z,23.80
2019-02-27T15:10:25.512Z,23.60
2019-02-27T15:12:55.032Z,23.40
2019-02-27T15:15:28.794Z,23.10
2019-02-27T15:17:57.171Z,23.30
2019-02-27T15:20:29.328Z,23.70
2019-02-27T15:22:57.746Z,23.80
2019-02-27T15:25:27.618Z,23.30
2019-02-27T15:27:58.985Z,23.80
2019-02-27T15:30:35.315Z,23.60
2019-02-27T15:33:05.245Z,23.50
2019-02-27T15:35:33.823Z,23.30
2019-02-27T15:38:02.221Z,23.80
2019-02-27T15:40:30.877Z,23.90
2019-02-27T15:42:59.589Z,24.20
2019-02-27T15:45:28.433Z,24.10
2019-02-27T15:47:56.852Z,24.30
2019-02-27T15:50:35.925Z,24.30
2019-02-27T15:53:04.313Z,24.50
2019-02-27T15:55:34.389Z,25.20
2019-02-27T15:58:03.035Z,26.30
2019-02-27T16:00:31.403Z,27.30
2019-02-27T16:03:00.093Z,28.10
2019-02-27T16:05:31.432Z,29.00
2019-02-27T16:07:58.832Z,29.70
2019-02-27T16:10:30.127Z,30.80
2019-02-27T16:13:01.098Z,31.80
2019-02-27T16:15:28.594Z,33.30
2019-02-27T16:17:57.327Z,34.90
2019-02-27T16:20:26.480Z,35.90
2019-02-27T16:22:54.895Z,36.70
2019-02-27T16:25:29.358Z,38.10
2019-02-27T16:27:57.817Z,39.50
2019-02-27T16:30:32.877Z,40.40
2019-02-27T16:33:01.494Z,41.50
2019-02-27T16:35:29.914Z,42.30
2019-02-27T16:37:58.279Z,43.10
2019-02-27T16:40:27.640Z,44.00
2019-02-27T16:42:56.031Z,44.70
2019-02-27T16:45:34.822Z,46.10
2019-02-27T16:48:02.518Z,46.30
2019-02-27T16:50:31.150Z,47.00
2019-02-27T16:52:59.528Z,48.00
2019-02-27T16:55:28.738Z,48.40
2019-02-27T16:57:57.836Z,49.20
2019-02-27T17:00:30.418Z,49.50
2019-02-27T17:02:58.873Z,50.00
2019-02-27T17:05:27.298Z,50.60
2019-02-27T17:08:00.208Z,51.20
2019-02-27T17:10:30.430Z,51.20
2019-02-27T17:12:59.025Z,51.40
2019-02-27T17:15:27.503Z,51.90
2019-02-27T17:17:56.018Z,52.50
2019-02-27T17:20:26.564Z,53.50
2019-02-27T17:22:55.406Z,53.50
2019-02-27T17:25:29.010Z,54.50
2019-02-27T17:27:53.870Z,54.70
2019-02-27T17:30:27.690Z,54.50
2019-02-27T17:32:56.074Z,55.00
2019-02-27T17:35:24.481Z,55.30
2019-02-27T17:37:53.040Z,55.80
2019-02-27T17:40:21.418Z,56.20
2019-02-27T17:42:53.143Z,56.40
2019-02-27T17:45:26.611Z,56.70
2019-02-27T17:47:55.020Z,56.70
2019-02-27T17:50:23.404Z,57.00
2019-02-27T17:52:51.821Z,56.90
2019-02-27T17:55:20.215Z,57.10
2019-02-27T17:57:48.656Z,57.30
2019-02-27T18:00:28.373Z,57.50
2019-02-27T18:02:56.650Z,57.90
2019-02-27T18:05:25.292Z,57.90
2019-02-27T18:07:54.564Z,57.80
2019-02-27T18:10:22.943Z,58.20
2019-02-27T18:12:51.751Z,58.30
2019-02-27T18:15:21.569Z,58.50
2019-02-27T18:17:50.045Z,58.70
2019-02-27T18:20:18.435Z,59.10
2019-02-27T18:22:49.381Z,59.20
2019-02-27T18:25:18.101Z,59.10
2019-02-27T18:27:47.897Z,59.80
2019-02-27T18:30:24.129Z,59.90
2019-02-27T18:32:52.535Z,60.30
2019-02-27T18:35:20.916Z,60.60
2019-02-27T18:37:53.291Z,60.90
2019-02-27T18:40:20.072Z,61.90
2019-02-27T18:42:48.439Z,62.40
2019-02-27T18:45:20.852Z,62.80
2019-02-27T18:47:49.236Z,63.30
2019-02-27T18:50:17.743Z,63.50
2019-02-27T18:52:46.145Z,64.30
2019-02-27T18:55:15.098Z,64.50
2019-02-27T18:57:47.265Z,67.50
2019-02-27T19:00:20.469Z,69.50
2019-02-27T19:02:51.947Z,71.30
2019-02-27T19:05:19.698Z,70.90
2019-02-27T19:07:48.099Z,70.30
2019-02-27T19:10:18.460Z,73.70
2019-02-27T19:12:46.865Z,72.00
2019-02-27T19:15:22.362Z,71.70
2019-02-27T19:17:51.039Z,71.40
2019-02-27T19:20:24.831Z,73.90
2019-02-27T19:22:53.451Z,73.00
2019-02-27T19:25:21.895Z,73.30
2019-02-27T19:27:50.679Z,72.30
2019-02-27T19:30:19.385Z,71.80
2019-02-27T19:32:48.326Z,71.80
2019-02-27T19:35:21.119Z,71.20
2019-02-27T19:37:47.790Z,71.50
2019-02-27T19:40:18.659Z,70.70
2019-02-27T19:43:03.872Z,71.60
2019-02-27T19:45:32.252Z,71.30
2019-02-27T19:48:00.710Z,71.40
2019-02-27T19:50:29.470Z,71.40
2019-02-27T19:53:03.304Z,71.30
2019-02-27T19:55:27.903Z,71.40
2019-02-27T19:57:56.287Z,71.20
2019-02-27T20:00:33.578Z,71.20
2019-02-27T20:03:01.142Z,71.00
2019-02-27T20:05:28.999Z,71.00
2019-02-27T20:07:57.394Z,70.70
2019-02-27T20:10:29.003Z,70.70
2019-02-27T20:12:55.870Z,71.80
2019-02-27T20:15:25.498Z,71.20
2019-02-27T20:17:53.891Z,70.90
2019-02-27T20:20:22.835Z,70.90
2019-02-27T20:22:53.547Z,71.80
2019-02-27T20:25:23.185Z,73.30
2019-02-27T20:27:51.599Z,73.50
2019-02-27T20:30:24.088Z,73.70
2019-02-27T20:32:52.706Z,74.20
2019-02-27T20:35:22.762Z,74.30
2019-02-27T20:37:51.215Z,75.30
2019-02-27T20:40:21.248Z,76.20
2019-02-27T20:42:53.732Z,75.00
2019-02-27T20:45:23.340Z,74.90
2019-02-27T20:47:57.800Z,75.20
2019-02-27T20:50:35.303Z,76.10
2019-02-27T20:53:04.489Z,76.10
2019-02-27T20:55:32.861Z,76.30
2019-02-27T20:58:01.568Z,75.90
2019-02-27T21:00:29.961Z,76.30
2019-02-27T21:03:00.658Z,75.60
2019-02-27T21:05:29.068Z,75.60
2019-02-27T21:08:01.942Z,77.50
2019-02-27T21:10:33.210Z,78.90
2019-02-27T21:13:01.876Z,76.80
2019-02-27T21:18:00.577Z,76.80
2019-02-27T21:20:28.977Z,77.00
2019-02-27T21:23:00.016Z,78.50
2019-02-27T21:25:27.583Z,78.00
2019-02-27T21:27:12.447Z,76.90
2019-02-27T21:27:55.926Z,79.40
2019-02-27T21:30:25.356Z,80.30
2019-02-27T21:32:53.738Z,81.70
2019-02-27T21:35:28.741Z,86.20
2019-02-27T21:37:53.590Z,86.00
2019-02-27T21:40:22.070Z,83.80
2019-02-27T21:42:51.203Z,85.50
2019-02-27T21:45:23.578Z,84.50
2019-02-27T21:47:52.887Z,85.20
2019-02-27T21:50:24.923Z,84.90
2019-02-27T21:52:55.683Z,84.70
2019-02-27T21:55:23.431Z,85.40
2019-02-27T21:57:51.778Z,84.20
2019-02-27T22:00:24.412Z,84.00
2019-02-27T22:02:57.347Z,83.70
2019-02-27T22:05:25.724Z,83.50
2019-02-27T22:07:54.065Z,83.10
2019-02-27T22:10:22.780Z,82.80
2019-02-27T22:12:51.173Z,82.20
2019-02-27T22:15:27.207Z,82.10
2019-02-27T22:17:55.609Z,81.70
2019-02-27T22:20:25.828Z,81.30
2019-02-27T22:22:54.372Z,80.90
2019-02-27T22:25:22.772Z,80.80
2019-02-27T22:27:51.175Z,80.50
2019-02-27T22:30:22.969Z,80.20
2019-02-27T22:32:51.692Z,80.10
2019-02-27T22:35:20.170Z,79.80
2019-02-27T22:37:51.584Z,79.60
2019-02-27T22:40:19.985Z,79.30
2019-02-27T22:42:49.241Z,79.10
2019-02-27T22:45:18.598Z,78.90
2019-02-27T22:47:47.000Z,78.80
2019-02-27T22:50:16.760Z,78.70
2019-02-27T22:52:45.147Z,78.50
2019-02-27T22:55:13.556Z,78.40
2019-02-27T22:57:41.924Z,78.50
2019-02-27T23:00:49.211Z,78.30
2019-02-27T23:03:17.895Z,78.40
2019-02-27T23:05:46.298Z,78.50
2019-02-27T23:08:14.697Z,78.40
2019-02-27T23:10:43.084Z,78.00
2019-02-27T23:13:12.661Z,78.20
2019-02-27T23:15:41.721Z,78.20
2019-02-27T23:18:10.122Z,78.20
2019-02-27T23:20:38.509Z,78.20
2019-02-27T23:23:06.923Z,78.10
2019-02-27T23:25:35.284Z,78.40
2019-02-27T23:28:03.712Z,78.40
2019-02-27T23:30:32.096Z,78.60
2019-02-27T23:33:02.285Z,78.50
2019-02-27T23:35:31.241Z,78.20
2019-02-27T23:38:02.835Z,78.20
2019-02-27T23:40:29.659Z,78.10
2019-02-27T23:43:02.368Z,78.50
2019-02-27T23:45:28.163Z,78.00
2019-02-27T23:47:59.229Z,78.40
2019-02-27T23:50:26.627Z,78.50
2019-02-27T23:52:55.026Z,78.20
2019-02-27T23:55:23.433Z,78.40
2019-02-27T23:57:51.886Z,78.50
